sensor_id;sensor_type;location;lat;lon;timestamp;P1;durP1;ratioP1;P2;durP2;ratioP2
84019;SDS011;74102;49.084;13.694;2024-01-15T00:00:13;13.98;;;4.43;;
84019;SDS011;74102;49.084;13.694;2024-01-15T00:02:39;14.02;;;5.75;;
84019;SDS011;74102;49.084;13.694;2024-01-15T00:05:05;12.95;;;4.43;;
84019;SDS011;74102;49.084;13.694;2024-01-15T00:07:30;18.08;;;6.07;;
84019;SDS011;74102;49.084;13.694;2024-01-15T00:09:55;11.38;;;5.20;;
84019;SDS011;74102;49.084;13.694;2024-01-15T00:12:21;9.13;;;4.15;;
84019;SDS011;74102;49.084;13.694;2024-01-15T00:14:46;9.63;;;3.92;;
84019;SDS011;74102;49.084;13.694;2024-01-15T00:17:11;10.30;;;3.92;;
84019;SDS011;74102;49.084;13.694;2024-01-15T00:19:38;13.95;;;4.72;;
84019;SDS011;74102;49.084;13.694;2024-01-15T00:22:03;10.30;;;4.53;;
84019;SDS011;74102;49.084;13.694;2024-01-15T00:24:29;15.43;;;5.88;;
84019;SDS011;74102;49.084;13.694;2024-01-15T00:26:54;11.98;;;4.82;;
84019;SDS011;74102;49.084;13.694;2024-01-15T00:29:20;17.40;;;6.35;;
84019;SDS011;74102;49.084;13.694;2024-01-15T00:31:46;24.63;;;8.23;;
84019;SDS011;74102;49.084;13.694;2024-01-15T00:34:12;13.95;;;5.55;;
84019;SDS011;74102;49.084;13.694;2024-01-15T00:36:37;19.38;;;7.35;;
84019;SDS011;74102;49.084;13.694;2024-01-15T00:39:03;18.45;;;7.57;;
84019;SDS011;74102;49.084;13.694;2024-01-15T00:41:30;13.90;;;6.35;;
84019;SDS011;74102;49.084;13.694;2024-01-15T00:43:56;14.98;;;6.05;;
84019;SDS011;74102;49.084;13.694;2024-01-15T00:46:21;13.85;;;5.13;;
84019;SDS011;74102;49.084;13.694;2024-01-15T00:48:47;15.95;;;6.70;;
84019;SDS011;74102;49.084;13.694;2024-01-15T00:51:12;22.63;;;8.45;;
84019;SDS011;74102;49.084;13.694;2024-01-15T00:53:38;17.70;;;7.30;;
84019;SDS011;74102;49.084;13.694;2024-01-15T00:56:03;15.35;;;5.32;;
84019;SDS011;74102;49.084;13.694;2024-01-15T00:58:29;13.60;;;5.38;;
84019;SDS011;74102;49.084;13.694;2024-01-15T01:00:54;14.18;;;5.22;;
84019;SDS011;74102;49.084;13.694;2024-01-15T01:03:20;16.60;;;6.50;;
84019;SDS011;74102;49.084;13.694;2024-01-15T01:05:46;16.30;;;6.20;;
84019;SDS011;74102;49.084;13.694;2024-01-15T01:08:13;29.85;;;12.10;;
84019;SDS011;74102;49.084;13.694;2024-01-15T01:10:39;23.20;;;8.07;;
84019;SDS011;74102;49.084;13.694;2024-01-15T01:13:04;15.32;;;5.43;;
84019;SDS011;74102;49.084;13.694;2024-01-15T01:15:30;11.75;;;4.82;;
84019;SDS011;74102;49.084;13.694;2024-01-15T01:17:55;12.00;;;5.05;;
84019;SDS011;74102;49.084;13.694;2024-01-15T01:20:21;10.75;;;4.28;;
84019;SDS011;74102;49.084;13.694;2024-01-15T01:22:46;10.45;;;4.38;;
84019;SDS011;74102;49.084;13.694;2024-01-15T01:25:11;9.98;;;4.38;;
84019;SDS011;74102;49.084;13.694;2024-01-15T01:27:37;12.05;;;5.45;;
84019;SDS011;74102;49.084;13.694;2024-01-15T01:30:02;12.27;;;4.80;;
84019;SDS011;74102;49.084;13.694;2024-01-15T01:32:28;15.77;;;6.43;;
84019;SDS011;74102;49.084;13.694;2024-01-15T01:34:54;18.67;;;8.65;;
84019;SDS011;74102;49.084;13.694;2024-01-15T01:37:19;15.05;;;5.40;;
84019;SDS011;74102;49.084;13.694;2024-01-15T01:39:45;16.70;;;6.28;;
84019;SDS011;74102;49.084;13.694;2024-01-15T01:42:10;15.60;;;6.13;;
84019;SDS011;74102;49.084;13.694;2024-01-15T01:44:37;16.80;;;6.55;;
84019;SDS011;74102;49.084;13.694;2024-01-15T01:47:02;17.60;;;6.45;;
84019;SDS011;74102;49.084;13.694;2024-01-15T01:49:29;16.60;;;6.45;;
84019;SDS011;74102;49.084;13.694;2024-01-15T01:51:58;12.07;;;5.43;;
84019;SDS011;74102;49.084;13.694;2024-01-15T01:54:26;16.77;;;7.07;;
84019;SDS011;74102;49.084;13.694;2024-01-15T01:56:57;18.58;;;7.55;;
84019;SDS011;74102;49.084;13.694;2024-01-15T01:59:23;22.77;;;8.93;;
84019;SDS011;74102;49.084;13.694;2024-01-15T02:01:50;15.32;;;6.50;;
84019;SDS011;74102;49.084;13.694;2024-01-15T02:04:16;21.52;;;8.70;;
84019;SDS011;74102;49.084;13.694;2024-01-15T02:06:42;17.35;;;7.63;;
84019;SDS011;74102;49.084;13.694;2024-01-15T02:09:07;21.08;;;8.50;;
84019;SDS011;74102;49.084;13.694;2024-01-15T02:11:34;19.63;;;7.88;;
84019;SDS011;74102;49.084;13.694;2024-01-15T02:14:00;17.00;;;6.95;;
84019;SDS011;74102;49.084;13.694;2024-01-15T02:16:25;18.38;;;7.05;;
84019;SDS011;74102;49.084;13.694;2024-01-15T02:18:51;17.67;;;7.57;;
84019;SDS011;74102;49.084;13.694;2024-01-15T02:21:16;16.10;;;7.07;;
84019;SDS011;74102;49.084;13.694;2024-01-15T02:23:41;20.00;;;7.63;;
84019;SDS011;74102;49.084;13.694;2024-01-15T02:26:07;15.60;;;7.32;;
84019;SDS011;74102;49.084;13.694;2024-01-15T02:28:33;18.25;;;6.80;;
84019;SDS011;74102;49.084;13.694;2024-01-15T02:30:59;16.27;;;6.68;;
84019;SDS011;74102;49.084;13.694;2024-01-15T02:33:24;17.20;;;7.20;;
84019;SDS011;74102;49.084;13.694;2024-01-15T02:35:50;21.65;;;6.82;;
84019;SDS011;74102;49.084;13.694;2024-01-15T02:38:15;20.33;;;8.43;;
84019;SDS011;74102;49.084;13.694;2024-01-15T02:40:41;16.75;;;7.55;;
84019;SDS011;74102;49.084;13.694;2024-01-15T02:43:07;18.58;;;7.53;;
84019;SDS011;74102;49.084;13.694;2024-01-15T02:45:33;15.88;;;7.05;;
84019;SDS011;74102;49.084;13.694;2024-01-15T02:47:58;17.63;;;7.53;;
84019;SDS011;74102;49.084;13.694;2024-01-15T02:50:23;21.55;;;8.82;;
84019;SDS011;74102;49.084;13.694;2024-01-15T02:52:49;21.65;;;8.45;;
84019;SDS011;74102;49.084;13.694;2024-01-15T02:55:14;15.95;;;6.95;;
84019;SDS011;74102;49.084;13.694;2024-01-15T02:57:40;16.95;;;6.80;;
84019;SDS011;74102;49.084;13.694;2024-01-15T03:00:05;15.80;;;6.65;;
84019;SDS011;74102;49.084;13.694;2024-01-15T03:02:32;14.75;;;5.93;;
84019;SDS011;74102;49.084;13.694;2024-01-15T03:04:57;15.27;;;6.85;;
84019;SDS011;74102;49.084;13.694;2024-01-15T03:07:23;17.58;;;7.80;;
84019;SDS011;74102;49.084;13.694;2024-01-15T03:09:48;19.02;;;8.38;;
84019;SDS011;74102;49.084;13.694;2024-01-15T03:12:14;19.83;;;8.32;;
84019;SDS011;74102;49.084;13.694;2024-01-15T03:14:39;22.05;;;8.82;;
84019;SDS011;74102;49.084;13.694;2024-01-15T03:17:04;21.52;;;9.30;;
84019;SDS011;74102;49.084;13.694;2024-01-15T03:19:30;20.60;;;7.90;;
84019;SDS011;74102;49.084;13.694;2024-01-15T03:21:56;16.85;;;7.47;;
84019;SDS011;74102;49.084;13.694;2024-01-15T03:24:21;18.73;;;8.43;;
84019;SDS011;74102;49.084;13.694;2024-01-15T03:26:47;16.55;;;7.20;;
84019;SDS011;74102;49.084;13.694;2024-01-15T03:29:12;16.70;;;7.38;;
84019;SDS011;74102;49.084;13.694;2024-01-15T03:31:37;15.27;;;7.35;;
84019;SDS011;74102;49.084;13.694;2024-01-15T03:34:03;15.73;;;7.05;;
84019;SDS011;74102;49.084;13.694;2024-01-15T03:36:28;16.23;;;6.47;;
84019;SDS011;74102;49.084;13.694;2024-01-15T03:38:54;15.27;;;7.40;;
84019;SDS011;74102;49.084;13.694;2024-01-15T03:41:19;17.80;;;7.22;;
84019;SDS011;74102;49.084;13.694;2024-01-15T03:43:45;15.43;;;6.78;;
84019;SDS011;74102;49.084;13.694;2024-01-15T03:46:10;16.27;;;6.65;;
84019;SDS011;74102;49.084;13.694;2024-01-15T03:48:36;14.95;;;7.22;;
84019;SDS011;74102;49.084;13.694;2024-01-15T03:51:01;16.45;;;6.80;;
84019;SDS011;74102;49.084;13.694;2024-01-15T03:53:27;15.13;;;6.22;;
84019;SDS011;74102;49.084;13.694;2024-01-15T03:55:52;15.23;;;6.32;;
84019;SDS011;74102;49.084;13.694;2024-01-15T03:58:18;13.70;;;5.75;;
84019;SDS011;74102;49.084;13.694;2024-01-15T04:00:43;15.52;;;6.32;;
84019;SDS011;74102;49.084;13.694;2024-01-15T04:03:09;13.63;;;6.22;;
84019;SDS011;74102;49.084;13.694;2024-01-15T04:05:34;13.43;;;6.25;;
84019;SDS011;74102;49.084;13.694;2024-01-15T04:08:00;14.38;;;6.78;;
84019;SDS011;74102;49.084;13.694;2024-01-15T04:10:25;16.33;;;7.18;;
84019;SDS011;74102;49.084;13.694;2024-01-15T04:12:51;14.20;;;5.75;;
84019;SDS011;74102;49.084;13.694;2024-01-15T04:15:16;11.60;;;5.60;;
84019;SDS011;74102;49.084;13.694;2024-01-15T04:17:41;14.05;;;6.25;;
84019;SDS011;74102;49.084;13.694;2024-01-15T04:20:07;15.77;;;5.95;;
84019;SDS011;74102;49.084;13.694;2024-01-15T04:22:36;13.98;;;6.22;;
84019;SDS011;74102;49.084;13.694;2024-01-15T04:25:02;15.13;;;5.78;;
84019;SDS011;74102;49.084;13.694;2024-01-15T04:27:27;16.08;;;7.55;;
84019;SDS011;74102;49.084;13.694;2024-01-15T04:29:53;17.30;;;6.47;;
84019;SDS011;74102;49.084;13.694;2024-01-15T04:32:18;15.70;;;6.60;;
84019;SDS011;74102;49.084;13.694;2024-01-15T04:34:44;15.07;;;5.38;;
84019;SDS011;74102;49.084;13.694;2024-01-15T04:37:09;12.77;;;5.40;;
84019;SDS011;74102;49.084;13.694;2024-01-15T04:39:34;10.52;;;4.80;;
84019;SDS011;74102;49.084;13.694;2024-01-15T04:42:00;12.60;;;4.95;;
84019;SDS011;74102;49.084;13.694;2024-01-15T04:44:25;12.75;;;5.72;;
84019;SDS011;74102;49.084;13.694;2024-01-15T04:46:51;17.80;;;6.72;;
84019;SDS011;74102;49.084;13.694;2024-01-15T04:49:16;12.88;;;5.13;;
84019;SDS011;74102;49.084;13.694;2024-01-15T04:51:41;12.48;;;5.10;;
84019;SDS011;74102;49.084;13.694;2024-01-15T04:54:07;13.73;;;5.18;;
84019;SDS011;74102;49.084;13.694;2024-01-15T04:56:32;12.10;;;4.60;;
84019;SDS011;74102;49.084;13.694;2024-01-15T04:58:57;13.80;;;5.28;;
84019;SDS011;74102;49.084;13.694;2024-01-15T05:01:23;13.27;;;5.15;;
84019;SDS011;74102;49.084;13.694;2024-01-15T05:03:48;11.73;;;5.00;;
84019;SDS011;74102;49.084;13.694;2024-01-15T05:06:14;9.15;;;3.75;;
84019;SDS011;74102;49.084;13.694;2024-01-15T05:08:40;9.65;;;4.18;;
84019;SDS011;74102;49.084;13.694;2024-01-15T05:11:05;9.80;;;3.95;;
84019;SDS011;74102;49.084;13.694;2024-01-15T05:13:30;13.95;;;5.03;;
84019;SDS011;74102;49.084;13.694;2024-01-15T05:15:56;14.75;;;5.47;;
84019;SDS011;74102;49.084;13.694;2024-01-15T05:18:21;10.27;;;4.65;;
84019;SDS011;74102;49.084;13.694;2024-01-15T05:20:47;12.88;;;5.55;;
84019;SDS011;74102;49.084;13.694;2024-01-15T05:23:12;12.88;;;5.32;;
84019;SDS011;74102;49.084;13.694;2024-01-15T05:25:37;11.07;;;3.97;;
84019;SDS011;74102;49.084;13.694;2024-01-15T05:28:03;11.35;;;4.90;;
84019;SDS011;74102;49.084;13.694;2024-01-15T05:30:30;10.40;;;4.18;;
84019;SDS011;74102;49.084;13.694;2024-01-15T05:32:55;10.50;;;4.25;;
84019;SDS011;74102;49.084;13.694;2024-01-15T05:35:22;9.88;;;4.15;;
84019;SDS011;74102;49.084;13.694;2024-01-15T05:37:47;11.30;;;4.72;;
84019;SDS011;74102;49.084;13.694;2024-01-15T05:40:13;11.57;;;4.68;;
84019;SDS011;74102;49.084;13.694;2024-01-15T05:42:39;9.07;;;3.95;;
84019;SDS011;74102;49.084;13.694;2024-01-15T05:45:05;11.35;;;4.50;;
84019;SDS011;74102;49.084;13.694;2024-01-15T05:47:31;10.05;;;4.28;;
84019;SDS011;74102;49.084;13.694;2024-01-15T05:49:57;10.82;;;4.70;;
84019;SDS011;74102;49.084;13.694;2024-01-15T05:52:23;14.27;;;5.28;;
84019;SDS011;74102;49.084;13.694;2024-01-15T05:54:49;15.68;;;5.78;;
84019;SDS011;74102;49.084;13.694;2024-01-15T05:57:14;14.23;;;6.10;;
84019;SDS011;74102;49.084;13.694;2024-01-15T05:59:40;12.65;;;5.10;;
84019;SDS011;74102;49.084;13.694;2024-01-15T06:02:05;14.50;;;5.32;;
84019;SDS011;74102;49.084;13.694;2024-01-15T06:04:31;13.32;;;5.35;;
84019;SDS011;74102;49.084;13.694;2024-01-15T06:06:56;15.98;;;5.65;;
84019;SDS011;74102;49.084;13.694;2024-01-15T06:09:21;15.38;;;5.60;;
84019;SDS011;74102;49.084;13.694;2024-01-15T06:11:47;13.45;;;5.03;;
84019;SDS011;74102;49.084;13.694;2024-01-15T06:14:13;19.08;;;7.10;;
84019;SDS011;74102;49.084;13.694;2024-01-15T06:16:38;11.35;;;4.60;;
84019;SDS011;74102;49.084;13.694;2024-01-15T06:19:03;12.50;;;5.18;;
84019;SDS011;74102;49.084;13.694;2024-01-15T06:21:29;12.95;;;5.10;;
84019;SDS011;74102;49.084;13.694;2024-01-15T06:23:54;9.65;;;4.57;;
84019;SDS011;74102;49.084;13.694;2024-01-15T06:26:21;8.57;;;3.80;;
84019;SDS011;74102;49.084;13.694;2024-01-15T06:28:47;11.20;;;4.10;;
84019;SDS011;74102;49.084;13.694;2024-01-15T06:31:13;11.00;;;4.68;;
84019;SDS011;74102;49.084;13.694;2024-01-15T06:33:38;11.15;;;4.53;;
84019;SDS011;74102;49.084;13.694;2024-01-15T06:36:03;9.68;;;4.10;;
84019;SDS011;74102;49.084;13.694;2024-01-15T06:38:30;11.05;;;4.20;;
84019;SDS011;74102;49.084;13.694;2024-01-15T06:40:55;11.65;;;4.57;;
84019;SDS011;74102;49.084;13.694;2024-01-15T06:43:21;10.60;;;4.85;;
84019;SDS011;74102;49.084;13.694;2024-01-15T06:45:46;13.38;;;4.18;;
84019;SDS011;74102;49.084;13.694;2024-01-15T06:48:12;17.65;;;5.40;;
84019;SDS011;74102;49.084;13.694;2024-01-15T06:50:39;20.00;;;5.75;;
84019;SDS011;74102;49.084;13.694;2024-01-15T06:53:05;13.93;;;5.38;;
84019;SDS011;74102;49.084;13.694;2024-01-15T06:55:30;11.80;;;4.38;;
84019;SDS011;74102;49.084;13.694;2024-01-15T06:57:56;13.00;;;4.57;;
84019;SDS011;74102;49.084;13.694;2024-01-15T07:00:21;24.67;;;7.32;;
84019;SDS011;74102;49.084;13.694;2024-01-15T07:02:47;14.60;;;5.38;;
84019;SDS011;74102;49.084;13.694;2024-01-15T07:05:12;12.38;;;4.95;;
84019;SDS011;74102;49.084;13.694;2024-01-15T07:07:38;18.08;;;6.18;;
84019;SDS011;74102;49.084;13.694;2024-01-15T07:10:03;17.35;;;6.57;;
84019;SDS011;74102;49.084;13.694;2024-01-15T07:12:30;18.98;;;5.95;;
84019;SDS011;74102;49.084;13.694;2024-01-15T07:14:56;11.85;;;4.53;;
84019;SDS011;74102;49.084;13.694;2024-01-15T07:17:21;13.50;;;4.57;;
84019;SDS011;74102;49.084;13.694;2024-01-15T07:19:47;13.50;;;5.35;;
84019;SDS011;74102;49.084;13.694;2024-01-15T07:22:12;9.73;;;3.70;;
84019;SDS011;74102;49.084;13.694;2024-01-15T07:24:38;9.25;;;3.60;;
84019;SDS011;74102;49.084;13.694;2024-01-15T07:27:03;10.25;;;4.10;;
84019;SDS011;74102;49.084;13.694;2024-01-15T07:29:30;10.15;;;4.18;;
84019;SDS011;74102;49.084;13.694;2024-01-15T07:31:58;9.23;;;3.50;;
84019;SDS011;74102;49.084;13.694;2024-01-15T07:34:23;6.65;;;3.13;;
84019;SDS011;74102;49.084;13.694;2024-01-15T07:36:49;11.45;;;3.92;;
84019;SDS011;74102;49.084;13.694;2024-01-15T07:39:14;12.20;;;4.55;;
84019;SDS011;74102;49.084;13.694;2024-01-15T07:41:39;9.25;;;3.90;;
84019;SDS011;74102;49.084;13.694;2024-01-15T07:44:05;11.90;;;4.88;;
84019;SDS011;74102;49.084;13.694;2024-01-15T07:46:30;10.18;;;4.07;;
84019;SDS011;74102;49.084;13.694;2024-01-15T07:48:56;11.15;;;4.28;;
84019;SDS011;74102;49.084;13.694;2024-01-15T07:51:23;8.75;;;4.00;;
84019;SDS011;74102;49.084;13.694;2024-01-15T07:53:49;11.45;;;4.78;;
84019;SDS011;74102;49.084;13.694;2024-01-15T07:56:14;11.48;;;4.40;;
84019;SDS011;74102;49.084;13.694;2024-01-15T07:58:40;9.32;;;4.03;;
84019;SDS011;74102;49.084;13.694;2024-01-15T08:01:05;12.75;;;4.70;;
84019;SDS011;74102;49.084;13.694;2024-01-15T08:03:31;18.05;;;6.32;;
84019;SDS011;74102;49.084;13.694;2024-01-15T08:05:56;12.38;;;4.70;;
84019;SDS011;74102;49.084;13.694;2024-01-15T08:08:24;12.05;;;4.82;;
84019;SDS011;74102;49.084;13.694;2024-01-15T08:10:51;10.65;;;4.43;;
84019;SDS011;74102;49.084;13.694;2024-01-15T08:13:17;10.35;;;4.00;;
84019;SDS011;74102;49.084;13.694;2024-01-15T08:15:43;9.80;;;3.83;;
84019;SDS011;74102;49.084;13.694;2024-01-15T08:18:08;11.15;;;4.00;;
84019;SDS011;74102;49.084;13.694;2024-01-15T08:20:34;8.35;;;3.67;;
84019;SDS011;74102;49.084;13.694;2024-01-15T08:22:59;7.57;;;3.00;;
84019;SDS011;74102;49.084;13.694;2024-01-15T08:25:25;10.57;;;4.18;;
84019;SDS011;74102;49.084;13.694;2024-01-15T08:27:51;9.18;;;4.00;;
84019;SDS011;74102;49.084;13.694;2024-01-15T08:30:17;9.25;;;3.53;;
84019;SDS011;74102;49.084;13.694;2024-01-15T08:32:43;8.45;;;3.40;;
84019;SDS011;74102;49.084;13.694;2024-01-15T08:35:09;7.82;;;3.35;;
84019;SDS011;74102;49.084;13.694;2024-01-15T08:37:35;6.97;;;3.63;;
84019;SDS011;74102;49.084;13.694;2024-01-15T08:40:01;9.95;;;3.95;;
84019;SDS011;74102;49.084;13.694;2024-01-15T08:42:26;7.22;;;3.28;;
84019;SDS011;74102;49.084;13.694;2024-01-15T08:44:52;8.98;;;3.50;;
84019;SDS011;74102;49.084;13.694;2024-01-15T08:47:17;10.20;;;3.85;;
84019;SDS011;74102;49.084;13.694;2024-01-15T08:49:43;9.60;;;3.53;;
84019;SDS011;74102;49.084;13.694;2024-01-15T08:52:10;8.07;;;3.42;;
84019;SDS011;74102;49.084;13.694;2024-01-15T08:54:35;8.43;;;3.63;;
84019;SDS011;74102;49.084;13.694;2024-01-15T08:57:01;8.55;;;3.33;;
84019;SDS011;74102;49.084;13.694;2024-01-15T08:59:26;8.23;;;3.50;;
84019;SDS011;74102;49.084;13.694;2024-01-15T09:01:52;9.25;;;4.07;;
84019;SDS011;74102;49.084;13.694;2024-01-15T09:04:18;10.82;;;4.28;;
84019;SDS011;74102;49.084;13.694;2024-01-15T09:06:47;10.00;;;3.85;;
84019;SDS011;74102;49.084;13.694;2024-01-15T09:09:12;10.57;;;4.10;;
84019;SDS011;74102;49.084;13.694;2024-01-15T09:11:39;7.95;;;3.63;;
84019;SDS011;74102;49.084;13.694;2024-01-15T09:14:05;7.78;;;3.15;;
84019;SDS011;74102;49.084;13.694;2024-01-15T09:16:31;10.63;;;4.65;;
84019;SDS011;74102;49.084;13.694;2024-01-15T09:18:56;7.25;;;3.10;;
84019;SDS011;74102;49.084;13.694;2024-01-15T09:21:22;8.05;;;3.60;;
84019;SDS011;74102;49.084;13.694;2024-01-15T09:23:49;8.40;;;3.40;;
84019;SDS011;74102;49.084;13.694;2024-01-15T09:26:15;9.27;;;3.45;;
84019;SDS011;74102;49.084;13.694;2024-01-15T09:28:40;8.98;;;3.53;;
84019;SDS011;74102;49.084;13.694;2024-01-15T09:31:05;6.93;;;2.80;;
84019;SDS011;74102;49.084;13.694;2024-01-15T09:33:31;8.52;;;3.42;;
84019;SDS011;74102;49.084;13.694;2024-01-15T09:35:56;10.35;;;3.88;;
84019;SDS011;74102;49.084;13.694;2024-01-15T09:38:22;7.63;;;3.15;;
84019;SDS011;74102;49.084;13.694;2024-01-15T09:40:49;9.82;;;4.07;;
84019;SDS011;74102;49.084;13.694;2024-01-15T09:43:15;8.98;;;3.08;;
84019;SDS011;74102;49.084;13.694;2024-01-15T09:45:42;9.23;;;3.72;;
84019;SDS011;74102;49.084;13.694;2024-01-15T09:48:08;10.52;;;3.90;;
84019;SDS011;74102;49.084;13.694;2024-01-15T09:50:34;7.90;;;3.55;;
84019;SDS011;74102;49.084;13.694;2024-01-15T09:52:59;9.15;;;3.63;;
84019;SDS011;74102;49.084;13.694;2024-01-15T09:55:25;6.95;;;2.95;;
84019;SDS011;74102;49.084;13.694;2024-01-15T09:57:52;9.93;;;3.55;;
84019;SDS011;74102;49.084;13.694;2024-01-15T10:00:18;13.00;;;5.05;;
84019;SDS011;74102;49.084;13.694;2024-01-15T10:02:44;11.43;;;5.35;;
84019;SDS011;74102;49.084;13.694;2024-01-15T10:05:10;14.75;;;6.32;;
84019;SDS011;74102;49.084;13.694;2024-01-15T10:07:36;13.13;;;5.68;;
84019;SDS011;74102;49.084;13.694;2024-01-15T10:10:03;7.50;;;3.63;;
84019;SDS011;74102;49.084;13.694;2024-01-15T10:12:28;9.30;;;3.53;;
84019;SDS011;74102;49.084;13.694;2024-01-15T10:14:54;7.28;;;3.10;;
84019;SDS011;74102;49.084;13.694;2024-01-15T10:17:20;7.78;;;3.22;;
84019;SDS011;74102;49.084;13.694;2024-01-15T10:19:46;6.15;;;2.80;;
84019;SDS011;74102;49.084;13.694;2024-01-15T10:22:13;8.82;;;3.40;;
84019;SDS011;74102;49.084;13.694;2024-01-15T10:24:40;9.85;;;3.35;;
84019;SDS011;74102;49.084;13.694;2024-01-15T10:27:06;8.95;;;3.97;;
84019;SDS011;74102;49.084;13.694;2024-01-15T10:29:35;9.70;;;3.35;;
84019;SDS011;74102;49.084;13.694;2024-01-15T10:32:02;8.25;;;3.05;;
84019;SDS011;74102;49.084;13.694;2024-01-15T10:34:28;7.72;;;3.00;;
84019;SDS011;74102;49.084;13.694;2024-01-15T10:36:53;6.35;;;2.97;;
84019;SDS011;74102;49.084;13.694;2024-01-15T10:39:22;10.80;;;3.65;;
84019;SDS011;74102;49.084;13.694;2024-01-15T10:41:48;6.53;;;3.03;;
84019;SDS011;74102;49.084;13.694;2024-01-15T10:44:17;6.88;;;3.35;;
84019;SDS011;74102;49.084;13.694;2024-01-15T10:46:43;5.25;;;2.55;;
84019;SDS011;74102;49.084;13.694;2024-01-15T10:49:10;5.43;;;2.22;;
84019;SDS011;74102;49.084;13.694;2024-01-15T10:51:37;8.23;;;3.30;;
84019;SDS011;74102;49.084;13.694;2024-01-15T10:54:02;10.82;;;4.93;;
84019;SDS011;74102;49.084;13.694;2024-01-15T10:56:30;12.88;;;5.40;;
84019;SDS011;74102;49.084;13.694;2024-01-15T10:58:57;8.13;;;3.40;;
84019;SDS011;74102;49.084;13.694;2024-01-15T11:01:24;9.75;;;3.28;;
84019;SDS011;74102;49.084;13.694;2024-01-15T11:03:49;8.35;;;3.10;;
84019;SDS011;74102;49.084;13.694;2024-01-15T11:06:18;8.35;;;3.55;;
84019;SDS011;74102;49.084;13.694;2024-01-15T11:08:50;7.03;;;2.92;;
84019;SDS011;74102;49.084;13.694;2024-01-15T11:11:17;5.95;;;2.70;;
84019;SDS011;74102;49.084;13.694;2024-01-15T11:13:43;6.90;;;2.83;;
84019;SDS011;74102;49.084;13.694;2024-01-15T11:16:11;6.35;;;2.78;;
84019;SDS011;74102;49.084;13.694;2024-01-15T11:18:43;7.45;;;3.28;;
84019;SDS011;74102;49.084;13.694;2024-01-15T11:21:26;8.20;;;3.53;;
84019;SDS011;74102;49.084;13.694;2024-01-15T11:23:55;7.18;;;3.13;;
84019;SDS011;74102;49.084;13.694;2024-01-15T11:26:32;8.07;;;3.53;;
84019;SDS011;74102;49.084;13.694;2024-01-15T11:29:07;14.73;;;5.35;;
84019;SDS011;74102;49.084;13.694;2024-01-15T11:34:03;11.73;;;3.38;;
84019;SDS011;74102;49.084;13.694;2024-01-15T11:37:15;13.50;;;6.68;;
84019;SDS011;74102;49.084;13.694;2024-01-15T11:42:01;17.27;;;6.70;;
84019;SDS011;74102;49.084;13.694;2024-01-15T11:44:30;27.48;;;9.07;;
84019;SDS011;74102;49.084;13.694;2024-01-15T11:47:00;18.83;;;6.63;;
84019;SDS011;74102;49.084;13.694;2024-01-15T11:52:24;9.05;;;3.88;;
84019;SDS011;74102;49.084;13.694;2024-01-15T11:57:45;6.07;;;2.53;;
84019;SDS011;74102;49.084;13.694;2024-01-15T12:00:11;6.65;;;2.97;;
84019;SDS011;74102;49.084;13.694;2024-01-15T12:02:41;8.60;;;3.80;;
84019;SDS011;74102;49.084;13.694;2024-01-15T12:05:14;7.07;;;3.25;;
84019;SDS011;74102;49.084;13.694;2024-01-15T12:07:41;8.13;;;3.85;;
84019;SDS011;74102;49.084;13.694;2024-01-15T12:10:11;12.65;;;5.97;;
84019;SDS011;74102;49.084;13.694;2024-01-15T12:13:00;11.90;;;4.35;;
84019;SDS011;74102;49.084;13.694;2024-01-15T12:15:30;7.18;;;3.05;;
84019;SDS011;74102;49.084;13.694;2024-01-15T12:17:56;8.85;;;3.97;;
84019;SDS011;74102;49.084;13.694;2024-01-15T12:20:24;13.35;;;5.38;;
84019;SDS011;74102;49.084;13.694;2024-01-15T12:22:53;9.40;;;3.78;;
84019;SDS011;74102;49.084;13.694;2024-01-15T12:25:20;7.47;;;3.00;;
84019;SDS011;74102;49.084;13.694;2024-01-15T12:27:45;8.15;;;3.25;;
84019;SDS011;74102;49.084;13.694;2024-01-15T12:30:14;6.32;;;3.00;;
84019;SDS011;74102;49.084;13.694;2024-01-15T12:32:40;7.65;;;3.65;;
84019;SDS011;74102;49.084;13.694;2024-01-15T12:35:07;13.70;;;5.25;;
84019;SDS011;74102;49.084;13.694;2024-01-15T12:37:35;6.32;;;2.95;;
84019;SDS011;74102;49.084;13.694;2024-01-15T12:40:00;6.85;;;3.38;;
84019;SDS011;74102;49.084;13.694;2024-01-15T12:42:27;6.13;;;2.80;;
84019;SDS011;74102;49.084;13.694;2024-01-15T12:44:54;11.48;;;4.00;;
84019;SDS011;74102;49.084;13.694;2024-01-15T12:47:22;13.32;;;5.38;;
84019;SDS011;74102;49.084;13.694;2024-01-15T12:49:48;6.18;;;3.00;;
84019;SDS011;74102;49.084;13.694;2024-01-15T12:52:18;11.95;;;4.10;;
84019;SDS011;74102;49.084;13.694;2024-01-15T12:54:44;26.83;;;10.95;;
84019;SDS011;74102;49.084;13.694;2024-01-15T12:57:09;10.38;;;4.45;;
84019;SDS011;74102;49.084;13.694;2024-01-15T12:59:35;6.15;;;3.08;;
84019;SDS011;74102;49.084;13.694;2024-01-15T13:02:00;13.02;;;5.45;;
84019;SDS011;74102;49.084;13.694;2024-01-15T13:04:25;14.82;;;6.50;;
84019;SDS011;74102;49.084;13.694;2024-01-15T13:06:51;10.68;;;4.20;;
84019;SDS011;74102;49.084;13.694;2024-01-15T13:09:17;7.57;;;3.72;;
84019;SDS011;74102;49.084;13.694;2024-01-15T13:11:43;7.38;;;3.30;;
84019;SDS011;74102;49.084;13.694;2024-01-15T13:14:12;19.23;;;7.53;;
84019;SDS011;74102;49.084;13.694;2024-01-15T13:16:41;6.22;;;2.60;;
84019;SDS011;74102;49.084;13.694;2024-01-15T13:19:09;14.13;;;4.90;;
84019;SDS011;74102;49.084;13.694;2024-01-15T13:21:36;9.60;;;3.85;;
84019;SDS011;74102;49.084;13.694;2024-01-15T13:24:02;7.45;;;3.17;;
84019;SDS011;74102;49.084;13.694;2024-01-15T13:26:30;5.32;;;2.45;;
84019;SDS011;74102;49.084;13.694;2024-01-15T13:28:56;6.95;;;2.78;;
84019;SDS011;74102;49.084;13.694;2024-01-15T13:31:22;4.32;;;1.77;;
84019;SDS011;74102;49.084;13.694;2024-01-15T13:33:47;4.38;;;1.85;;
84019;SDS011;74102;49.084;13.694;2024-01-15T13:36:13;5.15;;;2.17;;
84019;SDS011;74102;49.084;13.694;2024-01-15T13:38:38;4.47;;;2.05;;
84019;SDS011;74102;49.084;13.694;2024-01-15T13:41:04;4.65;;;1.92;;
84019;SDS011;74102;49.084;13.694;2024-01-15T13:43:31;4.07;;;1.60;;
84019;SDS011;74102;49.084;13.694;2024-01-15T13:45:57;3.35;;;1.70;;
84019;SDS011;74102;49.084;13.694;2024-01-15T13:48:22;4.65;;;1.98;;
84019;SDS011;74102;49.084;13.694;2024-01-15T13:50:48;4.45;;;2.13;;
84019;SDS011;74102;49.084;13.694;2024-01-15T13:53:13;4.25;;;1.70;;
84019;SDS011;74102;49.084;13.694;2024-01-15T13:55:38;5.93;;;2.33;;
84019;SDS011;74102;49.084;13.694;2024-01-15T13:58:04;9.10;;;3.50;;
84019;SDS011;74102;49.084;13.694;2024-01-15T14:00:31;8.20;;;2.83;;
84019;SDS011;74102;49.084;13.694;2024-01-15T14:02:57;5.50;;;1.75;;
84019;SDS011;74102;49.084;13.694;2024-01-15T14:05:22;5.57;;;2.78;;
84019;SDS011;74102;49.084;13.694;2024-01-15T14:07:48;6.00;;;2.63;;
84019;SDS011;74102;49.084;13.694;2024-01-15T14:10:14;7.75;;;2.53;;
84019;SDS011;74102;49.084;13.694;2024-01-15T14:12:39;13.02;;;5.38;;
84019;SDS011;74102;49.084;13.694;2024-01-15T14:15:05;4.80;;;1.90;;
84019;SDS011;74102;49.084;13.694;2024-01-15T14:17:31;5.88;;;2.72;;
84019;SDS011;74102;49.084;13.694;2024-01-15T14:19:57;29.27;;;10.20;;
84019;SDS011;74102;49.084;13.694;2024-01-15T14:22:22;15.10;;;5.70;;
84019;SDS011;74102;49.084;13.694;2024-01-15T14:24:47;7.00;;;2.90;;
84019;SDS011;74102;49.084;13.694;2024-01-15T14:27:14;8.43;;;3.63;;
84019;SDS011;74102;49.084;13.694;2024-01-15T14:29:39;18.05;;;6.85;;